Navajo Dam, New Mexico
Current Conditions -  °F | °C
As of 8:53 PM on Sunday 23 Nov 2014 (Local Time) from KDRO Reporting Station
Clear Clear  
Wind Chill: 17°   Ceiling: Unl
Heat Index: 25°   Visibility: 10mi
Dew Point: 10°   Wind: 7mph
Humidity: 53%   Direction: 250°WSW
Pressure: 30.05"   Gusts: NA
Location:  36.82°N, 107.68°W
Report Text: KDRO 240353Z AUTO 25006KT 10SM CLR M04/M12 A3005 RMK AO2 SLP200 T10391122 $
Loading
Personal Weather Stations






























Interactive Weather Map New forecast layout! Learn more

10-Day Weather Forecast

Advertisements
Track Severe Weather on mobile